createdAt,value
2018-09-30T00:00:33.579Z,99.99
2018-09-30T00:01:34.639Z,99.99
2018-09-30T00:02:35.863Z,99.99
2018-09-30T00:03:36.371Z,99.99
2018-09-30T00:04:36.875Z,99.99
2018-09-30T00:05:37.656Z,99.99
2018-09-30T00:06:38.718Z,99.99
2018-09-30T00:07:39.505Z,99.99
2018-09-30T00:08:41.289Z,99.99
2018-09-30T00:09:41.801Z,99.99
2018-09-30T00:10:42.304Z,99.99
2018-09-30T00:11:43.386Z,99.99
2018-09-30T00:12:44.162Z,99.99
2018-09-30T00:13:43.949Z,99.99
2018-09-30T00:14:44.729Z,99.99
2018-09-30T00:15:45.236Z,99.99
2018-09-30T00:16:46.740Z,99.99
2018-09-30T00:17:48.079Z,99.99
2018-09-30T00:18:48.306Z,99.99
2018-09-30T00:19:49.449Z,99.99
2018-09-30T00:20:50.511Z,99.99
2018-09-30T00:21:50.845Z,99.99
2018-09-30T00:22:51.352Z,99.99
2018-09-30T00:23:52.133Z,99.99
2018-09-30T00:24:52.640Z,99.99
2018-09-30T00:25:53.698Z,99.99
2018-09-30T00:26:54.479Z,99.99
2018-09-30T00:27:55.267Z,99.99
2018-09-30T00:28:55.619Z,99.99
2018-09-30T00:29:57.247Z,99.99
2018-09-30T00:30:57.758Z,99.99
2018-09-30T00:31:58.995Z,99.99
2018-09-30T00:33:00.521Z,99.99
2018-09-30T00:34:01.310Z,99.99
2018-09-30T00:35:02.663Z,99.99
2018-09-30T00:36:02.885Z,99.99
2018-09-30T00:37:03.672Z,99.99
2018-09-30T00:38:04.768Z,99.99
2018-09-30T00:39:05.280Z,99.99
2018-09-30T00:40:06.809Z,99.99
2018-09-30T00:41:06.878Z,99.99
2018-09-30T00:42:07.393Z,99.99
2018-09-30T00:43:08.458Z,99.99
2018-09-30T00:44:08.972Z,99.99
2018-09-30T00:45:10.210Z,99.99
2018-09-30T00:46:11.281Z,99.99
2018-09-30T00:47:12.664Z,99.99
2018-09-30T00:48:12.728Z,99.99
2018-09-30T00:49:14.079Z,99.99
2018-09-30T00:50:15.324Z,99.99
2018-09-30T00:51:15.391Z,99.99
2018-09-30T00:52:16.461Z,99.99
2018-09-30T00:53:17.809Z,99.99
2018-09-30T00:54:17.875Z,99.99
2018-09-30T00:55:18.386Z,99.99
2018-09-30T00:56:19.175Z,99.99
2018-09-30T00:57:19.963Z,99.99
2018-09-30T00:58:20.195Z,99.99
2018-09-30T00:59:21.840Z,99.99
2018-09-30T01:00:22.633Z,99.99
2018-09-30T01:01:24.423Z,99.99
2018-09-30T01:02:25.046Z,99.99
2018-09-30T01:03:25.836Z,99.99
2018-09-30T01:04:27.071Z,99.99
2018-09-30T01:05:27.861Z,99.99
2018-09-30T01:06:28.374Z,99.99
2018-09-30T01:07:30.167Z,99.99
2018-09-30T01:08:30.237Z,99.99
2018-09-30T01:09:31.307Z,99.99
2018-09-30T01:10:31.578Z,99.99
2018-09-30T01:11:32.650Z,99.99
2018-09-30T01:12:32.883Z,99.99
2018-09-30T01:13:33.948Z,99.99
2018-09-30T01:14:34.475Z,99.99
2018-09-30T01:15:35.583Z,99.99
2018-09-30T01:16:37.202Z,99.99
2018-09-30T01:17:38.269Z,99.99
2018-09-30T01:18:38.338Z,99.99
2018-09-30T01:19:39.403Z,99.99
2018-09-30T01:20:39.679Z,99.99
2018-09-30T01:21:40.750Z,99.99
2018-09-30T01:22:41.372Z,99.99
2018-09-30T01:23:42.435Z,99.99
2018-09-30T01:24:43.503Z,99.99
2018-09-30T01:25:43.574Z,99.99
2018-09-30T01:26:44.364Z,99.99
2018-09-30T01:27:44.707Z,99.99
2018-09-30T01:28:45.494Z,99.99
2018-09-30T01:29:47.284Z,99.99
2018-09-30T01:30:47.968Z,99.99
2018-09-30T01:31:49.313Z,99.99
2018-09-30T01:32:50.389Z,99.99
2018-09-30T01:33:51.017Z,99.99
2018-09-30T01:34:52.250Z,99.99
2018-09-30T01:35:53.758Z,99.99
2018-09-30T01:36:53.990Z,99.99
2018-09-30T01:37:54.615Z,99.99
2018-09-30T01:38:55.404Z,99.99
2018-09-30T01:39:56.472Z,99.99
2018-09-30T01:40:57.855Z,99.99
2018-09-30T01:41:58.643Z,99.99
2018-09-30T01:42:58.996Z,99.99
2018-09-30T01:44:00.108Z,99.99
2018-09-30T01:45:01.451Z,99.99
2018-09-30T01:46:01.799Z,99.99
2018-09-30T01:47:02.314Z,99.99
2018-09-30T01:48:03.109Z,99.99
2018-09-30T01:49:03.624Z,99.99
2018-09-30T01:50:04.693Z,99.99
2018-09-30T01:51:05.788Z,99.99
2018-09-30T01:52:06.577Z,99.99
2018-09-30T01:53:07.367Z,99.99
2018-09-30T01:54:08.157Z,99.99
2018-09-30T01:55:08.669Z,99.99
2018-09-30T01:56:09.735Z,99.99
2018-09-30T01:57:11.084Z,99.99
2018-09-30T01:58:12.153Z,99.99
2018-09-30T01:59:12.662Z,99.99
2018-09-30T02:00:13.738Z,99.99
2018-09-30T02:01:14.985Z,99.99
2018-09-30T02:02:16.220Z,99.99
2018-09-30T02:03:17.289Z,99.99
2018-09-30T02:04:18.359Z,99.99
2018-09-30T02:05:19.150Z,99.99
2018-09-30T02:06:20.786Z,99.99
2018-09-30T02:07:21.127Z,99.99
2018-09-30T02:08:22.918Z,99.99
2018-09-30T02:09:23.539Z,99.99
2018-09-30T02:10:24.057Z,99.99
2018-09-30T02:11:24.604Z,99.99
2018-09-30T02:12:25.390Z,99.99
2018-09-30T02:13:25.458Z,99.99
2018-09-30T02:14:26.530Z,99.99
2018-09-30T02:15:27.597Z,99.99
2018-09-30T02:16:28.108Z,99.99
2018-09-30T02:17:29.897Z,99.99
2018-09-30T02:18:30.132Z,99.99
2018-09-30T02:19:31.477Z,99.99
2018-09-30T02:20:31.267Z,99.99
2018-09-30T02:21:32.535Z,99.99
2018-09-30T02:22:33.324Z,99.99
2018-09-30T02:23:34.835Z,99.99
2018-09-30T02:24:35.349Z,99.99
2018-09-30T02:25:36.138Z,99.99
2018-09-30T02:26:36.656Z,99.99
2018-09-30T02:27:37.721Z,99.99
2018-09-30T02:28:38.512Z,99.99
2018-09-30T02:29:39.581Z,99.99
2018-09-30T02:30:40.370Z,99.99
2018-09-30T02:31:41.482Z,99.99
2018-09-30T02:32:41.552Z,99.99
2018-09-30T02:33:42.066Z,99.99
2018-09-30T02:34:42.690Z,99.99
2018-09-30T02:35:44.039Z,99.99
2018-09-30T02:36:44.116Z,99.99
2018-09-30T02:37:45.467Z,99.99
2018-09-30T02:38:46.540Z,99.99
2018-09-30T02:39:47.724Z,99.99
2018-09-30T02:40:47.513Z,99.99
2018-09-30T02:41:48.783Z,99.99
2018-09-30T02:42:49.580Z,99.99
2018-09-30T02:43:49.920Z,99.99
2018-09-30T02:44:50.989Z,99.99
2018-09-30T02:45:52.054Z,99.99
2018-09-30T02:46:52.404Z,99.99
2018-09-30T02:47:52.747Z,99.99
2018-09-30T02:48:53.816Z,99.99
2018-09-30T02:49:55.170Z,99.99
2018-09-30T02:50:55.958Z,99.99
2018-09-30T02:51:56.787Z,99.99
2018-09-30T02:52:58.457Z,99.99
2018-09-30T02:53:59.245Z,99.99
2018-09-30T02:55:00.033Z,99.99
2018-09-30T02:56:01.103Z,99.99
2018-09-30T02:57:02.307Z,99.99
2018-09-30T02:58:03.105Z,99.99
2018-09-30T02:59:03.652Z,99.99
2018-09-30T03:00:04.740Z,99.99
2018-09-30T03:01:06.087Z,99.99
2018-09-30T03:02:06.604Z,99.99
2018-09-30T03:03:07.948Z,99.99
2018-09-30T03:04:09.131Z,99.99
2018-09-30T03:05:09.202Z,99.99
2018-09-30T03:06:10.548Z,99.99
2018-09-30T03:07:11.169Z,99.99
2018-09-30T03:08:11.237Z,99.99
2018-09-30T03:09:11.862Z,99.99
2018-09-30T03:10:12.204Z,99.99
2018-09-30T03:11:13.271Z,99.99
2018-09-30T03:12:14.345Z,99.99
2018-09-30T03:13:15.703Z,99.99
2018-09-30T03:14:16.882Z,99.99
2018-09-30T03:15:17.680Z,99.99
2018-09-30T03:16:18.582Z,99.99
2018-09-30T03:17:19.650Z,99.99
2018-09-30T03:18:20.714Z,99.99
2018-09-30T03:19:21.505Z,99.99
2018-09-30T03:20:22.573Z,99.99
2018-09-30T03:21:23.091Z,99.99
2018-09-30T03:22:24.615Z,99.99
2018-09-30T03:23:25.405Z,99.99
2018-09-30T03:24:27.033Z,99.99
2018-09-30T03:25:27.658Z,99.99
2018-09-30T03:26:28.722Z,99.99
2018-09-30T03:27:29.641Z,99.99
2018-09-30T03:28:30.151Z,99.99
2018-09-30T03:29:31.666Z,99.99
2018-09-30T03:30:32.580Z,99.99
2018-09-30T03:31:32.929Z,99.99
2018-09-30T03:32:34.312Z,99.99
2018-09-30T03:33:35.962Z,99.99
2018-09-30T03:34:36.585Z,99.99
2018-09-30T03:35:36.768Z,99.99
2018-09-30T03:36:37.277Z,99.99
2018-09-30T03:37:38.628Z,99.99
2018-09-30T03:38:39.692Z,99.99
2018-09-30T03:39:40.264Z,99.99
2018-09-30T03:40:41.434Z,99.99
2018-09-30T03:41:42.501Z,99.99
2018-09-30T03:42:43.304Z,99.99
2018-09-30T03:43:43.928Z,99.99
2018-09-30T03:44:45.165Z,99.99
2018-09-30T03:45:46.241Z,99.99
2018-09-30T03:46:47.595Z,99.99
2018-09-30T03:47:47.676Z,99.99
2018-09-30T03:48:49.474Z,99.99
2018-09-30T03:49:50.095Z,99.99
2018-09-30T03:50:50.440Z,99.99
2018-09-30T03:51:50.952Z,99.99
2018-09-30T03:52:52.058Z,99.99
2018-09-30T03:53:52.845Z,99.99
2018-09-30T03:54:53.747Z,99.99
2018-09-30T03:55:54.534Z,99.99
2018-09-30T03:56:55.599Z,99.99
2018-09-30T03:57:57.239Z,99.99
2018-09-30T03:58:57.307Z,99.99
2018-09-30T03:59:58.391Z,99.99
2018-09-30T04:00:58.902Z,99.99
2018-09-30T04:01:59.696Z,99.99
2018-09-30T04:03:00.671Z,99.99
2018-09-30T04:04:02.018Z,99.99
2018-09-30T04:05:02.809Z,99.99
2018-09-30T04:06:03.880Z,99.99
2018-09-30T04:07:04.526Z,99.99
2018-09-30T04:08:05.314Z,99.99
2018-09-30T04:09:06.389Z,99.99
2018-09-30T04:10:08.386Z,99.99
2018-09-30T04:11:08.716Z,99.99
2018-09-30T04:12:10.065Z,99.99
2018-09-30T04:13:10.065Z,99.99
2018-09-30T04:14:11.133Z,99.99
2018-09-30T04:15:12.203Z,99.99
2018-09-30T04:16:13.273Z,99.99
2018-09-30T04:17:13.990Z,99.99
2018-09-30T04:18:14.825Z,99.99
2018-09-30T04:19:15.886Z,99.99
2018-09-30T04:20:17.234Z,99.99
2018-09-30T04:21:17.301Z,99.99
2018-09-30T04:22:18.091Z,99.99
2018-09-30T04:23:19.062Z,99.99
2018-09-30T04:24:19.685Z,99.99
2018-09-30T04:25:19.476Z,99.99
2018-09-30T04:26:20.096Z,99.99
2018-09-30T04:27:20.608Z,99.99
2018-09-30T04:28:21.962Z,99.99
2018-09-30T04:29:21.749Z,99.99
2018-09-30T04:30:22.822Z,99.99
2018-09-30T04:31:23.885Z,99.99
2018-09-30T04:32:24.953Z,99.99
2018-09-30T04:33:26.465Z,99.99
2018-09-30T04:34:27.257Z,99.99
2018-09-30T04:35:28.042Z,99.99
2018-09-30T04:36:28.945Z,99.99
2018-09-30T04:37:29.309Z,99.99
2018-09-30T04:38:29.828Z,99.99
2018-09-30T04:39:31.059Z,99.99
2018-09-30T04:40:31.685Z,99.99
2018-09-30T04:41:33.041Z,99.99
2018-09-30T04:42:33.382Z,99.99
2018-09-30T04:43:34.632Z,99.99
2018-09-30T04:44:35.420Z,99.99
2018-09-30T04:45:36.205Z,99.99
2018-09-30T04:46:37.275Z,99.99
2018-09-30T04:47:37.510Z,99.99
2018-09-30T04:48:39.126Z,99.99
2018-09-30T04:49:39.829Z,99.99
2018-09-30T04:50:40.951Z,99.99
2018-09-30T04:51:42.022Z,99.99
2018-09-30T04:52:42.638Z,99.99
2018-09-30T04:53:43.749Z,99.99
2018-09-30T04:54:44.812Z,99.99
2018-09-30T04:55:45.603Z,99.99
2018-09-30T04:56:46.393Z,99.99
2018-09-30T04:57:47.464Z,99.99
2018-09-30T04:58:47.975Z,99.99
2018-09-30T04:59:49.041Z,99.99
2018-09-30T05:00:49.835Z,99.99
2018-09-30T05:01:50.350Z,99.99
2018-09-30T05:02:51.149Z,99.99
2018-09-30T05:03:52.668Z,99.99
2018-09-30T05:04:53.187Z,99.99
2018-09-30T05:05:54.241Z,99.99
2018-09-30T05:06:54.215Z,99.99
2018-09-30T05:07:55.285Z,99.99
2018-09-30T05:08:55.802Z,99.99
2018-09-30T05:09:56.424Z,99.99
2018-09-30T05:10:57.214Z,99.99
2018-09-30T05:11:58.282Z,99.99
2018-09-30T05:12:58.796Z,99.99
2018-09-30T05:13:59.491Z,99.99
2018-09-30T05:15:00.841Z,99.99
2018-09-30T05:16:01.578Z,99.99
2018-09-30T05:17:01.561Z,99.99
2018-09-30T05:18:02.352Z,99.99
2018-09-30T05:19:02.586Z,99.99
2018-09-30T05:20:03.654Z,99.99
2018-09-30T05:21:04.455Z,99.99
2018-09-30T05:22:05.244Z,99.99
2018-09-30T05:23:06.590Z,99.99
2018-09-30T05:24:07.558Z,99.99
2018-09-30T05:25:08.364Z,99.99
2018-09-30T05:26:08.436Z,99.99
2018-09-30T05:27:09.785Z,99.99
2018-09-30T05:28:11.134Z,99.99
2018-09-30T05:29:12.206Z,99.99
2018-09-30T05:30:12.717Z,99.99
2018-09-30T05:31:14.269Z,99.99
2018-09-30T05:32:14.307Z,99.99
2018-09-30T05:33:15.378Z,99.99
2018-09-30T05:34:16.954Z,99.99
2018-09-30T05:35:18.003Z,99.99
2018-09-30T05:36:19.074Z,99.99
2018-09-30T05:37:20.591Z,99.99
2018-09-30T05:38:21.236Z,99.99
2018-09-30T05:39:21.473Z,99.99
2018-09-30T05:40:22.543Z,99.99
2018-09-30T05:41:23.059Z,99.99
2018-09-30T05:42:23.586Z,99.99
2018-09-30T05:43:24.460Z,99.99
2018-09-30T05:44:24.988Z,99.99
2018-09-30T05:45:26.367Z,99.99
2018-09-30T05:46:27.158Z,99.99
2018-09-30T05:47:27.951Z,99.99
2018-09-30T05:48:29.186Z,99.99
2018-09-30T05:49:30.980Z,99.99
2018-09-30T05:50:32.051Z,99.99
2018-09-30T05:51:32.568Z,99.99
2018-09-30T05:52:33.919Z,99.99
2018-09-30T05:53:34.268Z,99.99
2018-09-30T05:54:35.238Z,99.99
2018-09-30T05:55:36.029Z,99.99
2018-09-30T05:56:36.544Z,99.99
2018-09-30T05:57:38.521Z,99.99
2018-09-30T05:58:38.523Z,99.99
2018-09-30T05:59:39.317Z,99.99
2018-09-30T06:00:40.946Z,99.99
2018-09-30T06:01:40.739Z,99.99
2018-09-30T06:02:41.093Z,99.99
2018-09-30T06:03:42.161Z,99.99
2018-09-30T06:04:43.127Z,99.99
2018-09-30T06:05:43.641Z,99.99
2018-09-30T06:06:44.430Z,99.99
2018-09-30T06:07:45.507Z,99.99
2018-09-30T06:08:46.305Z,99.99
2018-09-30T06:09:46.824Z,99.99
2018-09-30T06:10:47.895Z,99.99
2018-09-30T06:11:48.966Z,99.99
2018-09-30T06:12:50.037Z,99.99
2018-09-30T06:13:51.346Z,99.99
2018-09-30T06:14:51.271Z,99.99
2018-09-30T06:15:53.407Z,99.99
2018-09-30T06:16:53.363Z,99.99
2018-09-30T06:17:54.438Z,99.99
2018-09-30T06:18:55.341Z,99.99
2018-09-30T06:19:56.136Z,99.99
2018-09-30T06:20:57.214Z,99.99
2018-09-30T06:21:58.011Z,99.99
2018-09-30T06:22:59.084Z,99.99
2018-09-30T06:24:00.236Z,99.99
2018-09-30T06:25:00.933Z,99.99
2018-09-30T06:26:02.011Z,99.99
2018-09-30T06:27:02.580Z,99.99
2018-09-30T06:28:02.930Z,99.99
2018-09-30T06:29:04.002Z,99.99
2018-09-30T06:30:04.904Z,99.99
2018-09-30T06:31:05.141Z,99.99
2018-09-30T06:32:06.117Z,99.99
2018-09-30T06:33:06.659Z,99.99
2018-09-30T06:34:07.738Z,99.99
2018-09-30T06:35:08.990Z,99.99
2018-09-30T06:36:09.618Z,99.99
2018-09-30T06:37:11.126Z,99.99
2018-09-30T06:38:12.100Z,99.99
2018-09-30T06:39:13.448Z,99.99
2018-09-30T06:40:14.583Z,99.99
2018-09-30T06:41:14.400Z,99.99
2018-09-30T06:42:15.030Z,99.99
2018-09-30T06:43:15.394Z,99.99
2018-09-30T06:44:16.470Z,99.99
2018-09-30T06:45:17.780Z,99.99
2018-09-30T06:46:17.941Z,99.99
2018-09-30T06:47:18.460Z,99.99
2018-09-30T06:48:19.649Z,99.99
2018-09-30T06:49:20.166Z,99.99
2018-09-30T06:50:21.522Z,99.99
2018-09-30T06:51:22.600Z,99.18
2018-09-30T06:52:23.400Z,99.32
2018-09-30T06:53:24.653Z,98.08
2018-09-30T06:54:25.731Z,97.32
2018-09-30T06:55:26.426Z,95.84
2018-09-30T06:56:27.777Z,95.08
2018-09-30T06:57:28.578Z,94.12
2018-09-30T06:58:30.373Z,93.93
2018-09-30T06:59:31.723Z,93.74
2018-09-30T07:00:32.794Z,93.36
2018-09-30T07:01:33.870Z,92.83
2018-09-30T07:02:34.947Z,91.69
2018-09-30T07:03:35.745Z,91.31
2018-09-30T07:04:36.541Z,91.98
2018-09-30T07:05:37.797Z,90.69
2018-09-30T07:06:39.156Z,90.97
2018-09-30T07:07:39.796Z,90.4
2018-09-30T07:08:41.153Z,90.97
2018-09-30T07:09:41.671Z,88.59
2018-09-30T07:10:42.861Z,87.39
2018-09-30T07:11:43.595Z,85.86
2018-09-30T07:12:43.843Z,84.95
2018-09-30T07:13:44.920Z,83.8
2018-09-30T07:14:45.721Z,82.94
2018-09-30T07:15:46.699Z,82.28
2018-09-30T07:16:48.394Z,81.26
2018-09-30T07:17:49.042Z,80.59
2018-09-30T07:18:49.848Z,80.35
2018-09-30T07:19:50.648Z,79.68
2018-09-30T07:20:51.895Z,78.34
2018-09-30T07:21:52.698Z,76.75
2018-09-30T07:22:53.055Z,76.56
2018-09-30T07:23:54.410Z,76.56
2018-09-30T07:24:55.214Z,77.13
2018-09-30T07:25:56.191Z,76.84
2018-09-30T07:26:57.625Z,76.94
2018-09-30T07:27:58.704Z,77.95
2018-09-30T07:28:58.785Z,79.1
2018-09-30T07:30:00.028Z,79.87
2018-09-30T07:31:00.551Z,79.96
2018-09-30T07:32:01.630Z,80.16
2018-09-30T07:33:02.430Z,80.63
2018-09-30T07:34:03.232Z,81.65
2018-09-30T07:35:04.030Z,82.7
2018-09-30T07:36:05.838Z,83.17
2018-09-30T07:37:06.640Z,83.08
2018-09-30T07:38:07.441Z,83.65
2018-09-30T07:39:07.956Z,82.51
2018-09-30T07:40:08.756Z,82.51
2018-09-30T07:41:09.555Z,82.89
2018-09-30T07:42:10.075Z,82.12
2018-09-30T07:43:10.873Z,82.12
2018-09-30T07:44:11.394Z,82.51
2018-09-30T07:45:12.196Z,83.46
2018-09-30T07:46:12.725Z,83.27
2018-09-30T07:47:13.083Z,83.27
2018-09-30T07:48:13.881Z,83.27
2018-09-30T07:49:14.957Z,84.13
2018-09-30T07:50:16.037Z,86.23
2018-09-30T07:51:17.391Z,85.33
2018-09-30T07:52:18.191Z,85.94
2018-09-30T07:53:19.548Z,87.62
2018-09-30T07:54:20.071Z,88.39
2018-09-30T07:55:20.588Z,88.82
2018-09-30T07:56:21.846Z,88.58
2018-09-30T07:57:23.360Z,87.91
2018-09-30T07:58:24.439Z,87.82
2018-09-30T07:59:25.071Z,88.1
2018-09-30T08:00:25.870Z,88.77
2018-09-30T08:01:26.395Z,87.62
2018-09-30T08:02:27.029Z,86.86
2018-09-30T08:03:28.386Z,87.43
2018-09-30T08:04:28.463Z,89.15
2018-09-30T08:05:30.260Z,89.53
2018-09-30T08:06:31.923Z,88.29
2018-09-30T08:07:31.313Z,88.2
2018-09-30T08:08:32.387Z,88.29
2018-09-30T08:09:32.190Z,89.53
2018-09-30T08:10:32.713Z,90.11
2018-09-30T08:11:33.064Z,90.01
2018-09-30T08:12:34.422Z,89.53
2018-09-30T08:13:35.224Z,89.48
2018-09-30T08:14:35.745Z,89.82
2018-09-30T08:15:37.103Z,89.53
2018-09-30T08:16:38.452Z,90.16
2018-09-30T08:17:38.782Z,91.93
2018-09-30T08:18:39.301Z,92.25
2018-09-30T08:19:40.824Z,93.07
2018-09-30T08:20:42.453Z,93.84
2018-09-30T08:21:42.635Z,94.02
2018-09-30T08:22:43.877Z,93.45
2018-09-30T08:23:44.953Z,92.97
2018-09-30T08:24:45.479Z,93.26
2018-09-30T08:25:46.555Z,92.88
2018-09-30T08:26:47.531Z,91.83
2018-09-30T08:27:48.329Z,91.16
2018-09-30T08:28:49.128Z,91.45
2018-09-30T08:29:49.926Z,91.02
2018-09-30T08:30:51.407Z,90.34
2018-09-30T08:31:52.087Z,90.34
2018-09-30T08:32:52.884Z,90.53
2018-09-30T08:33:53.695Z,91.02
2018-09-30T08:34:55.050Z,91.02
2018-09-30T08:35:56.125Z,90.82
2018-09-30T08:36:56.655Z,92.64
2018-09-30T08:37:58.174Z,92.64
2018-09-30T08:38:58.697Z,92.07
2018-09-30T08:40:00.057Z,91.78
2018-09-30T08:41:00.374Z,91.97
2018-09-30T08:42:01.172Z,91.88
2018-09-30T08:43:01.695Z,92.74
2018-09-30T08:44:02.515Z,93.6
2018-09-30T08:45:03.242Z,92.45
2018-09-30T08:46:04.767Z,90.73
2018-09-30T08:47:05.825Z,90.1
2018-09-30T08:48:06.892Z,90.01
2018-09-30T08:49:08.210Z,90.67
2018-09-30T08:50:09.023Z,89.24
2018-09-30T08:51:09.823Z,88.48
2018-09-30T08:52:10.346Z,88.33
2018-09-30T08:53:10.866Z,87.85
2018-09-30T08:54:11.390Z,89.48
2018-09-30T08:55:12.466Z,90.96
2018-09-30T08:56:14.730Z,89.38
2018-09-30T08:57:14.789Z,89.38
2018-09-30T08:58:16.031Z,88.33
2018-09-30T08:59:17.108Z,88.13
2018-09-30T09:00:17.404Z,87.66
2018-09-30T09:01:18.550Z,88.43
2018-09-30T09:02:19.069Z,89.09
2018-09-30T09:03:20.147Z,89.23
2018-09-30T09:04:20.944Z,88.37
2018-09-30T09:05:22.468Z,88.28
2018-09-30T09:06:23.557Z,86.74
2018-09-30T09:07:24.393Z,86.17
2018-09-30T09:08:24.988Z,86.55
2018-09-30T09:09:25.795Z,86.84
2018-09-30T09:10:26.866Z,87.32
2018-09-30T09:11:28.111Z,90.58
2018-09-30T09:12:28.910Z,89.04
2018-09-30T09:13:29.993Z,89.43
2018-09-30T09:14:30.116Z,88.28
2018-09-30T09:15:32.485Z,88.18
2018-09-30T09:16:32.140Z,88.37
2018-09-30T09:17:33.538Z,88.56
2018-09-30T09:18:34.616Z,89.81
2018-09-30T09:19:34.864Z,87.99
2018-09-30T09:20:35.657Z,87.9
2018-09-30T09:21:36.454Z,88.09
2018-09-30T09:22:36.897Z,88.7
2018-09-30T09:23:38.331Z,87.46
2018-09-30T09:24:38.608Z,88.23
2018-09-30T09:25:42.992Z,87.03
2018-09-30T09:25:51.970Z,87.03
2018-09-30T09:26:52.941Z,87.03
2018-09-30T09:27:53.306Z,86.69
2018-09-30T09:28:54.416Z,86.46
2018-09-30T09:29:55.497Z,86.65
2018-09-30T09:30:56.012Z,86.12
2018-09-30T09:31:57.533Z,86.88
2018-09-30T09:32:59.244Z,87.46
2018-09-30T09:33:59.873Z,86.98
2018-09-30T09:35:01.792Z,86.69
2018-09-30T09:36:02.085Z,85.35
2018-09-30T09:37:02.367Z,86.21
2018-09-30T09:38:03.887Z,86.69
2018-09-30T09:39:04.686Z,85.21
2018-09-30T09:40:05.491Z,84.34
2018-09-30T09:41:06.849Z,83.19
2018-09-30T09:42:07.647Z,83
2018-09-30T09:43:08.447Z,82.08
2018-09-30T09:44:09.542Z,81.31
2018-09-30T09:45:14.066Z,81.89
2018-09-30T09:45:25.134Z,81.7
2018-09-30T09:46:23.827Z,81.6
2018-09-30T09:47:23.903Z,80.07
2018-09-30T09:48:25.535Z,80.99
2018-09-30T09:49:26.060Z,82.37
2018-09-30T09:50:27.583Z,82.27
2018-09-30T09:51:28.110Z,82.08
2018-09-30T09:52:28.934Z,80.83
2018-09-30T09:53:29.590Z,78.96
2018-09-30T09:54:30.395Z,76.21
2018-09-30T09:55:31.489Z,73.31
2018-09-30T09:56:32.757Z,73.06
2018-09-30T09:57:33.306Z,70.88
2018-09-30T09:58:34.619Z,71.26
2018-09-30T09:59:34.704Z,69.28
2018-09-30T10:00:35.786Z,67.49
2018-09-30T10:01:36.314Z,65.43
2018-09-30T10:02:37.120Z,64.56
2018-09-30T10:03:37.928Z,63.44
2018-09-30T10:04:39.181Z,62.6
2018-09-30T10:05:40.543Z,62.34
2018-09-30T10:06:42.093Z,61.96
2018-09-30T10:07:43.184Z,60.41
2018-09-30T10:08:44.282Z,59.48
2018-09-30T10:09:47.654Z,58.97
2018-09-30T10:10:47.145Z,60.03
2018-09-30T10:11:47.679Z,58.9
2018-09-30T10:12:48.212Z,59.38
2018-09-30T10:13:48.743Z,58.73
2018-09-30T10:14:49.831Z,58.25
2018-09-30T10:15:51.085Z,57.29
2018-09-30T10:16:51.626Z,56.45
2018-09-30T10:17:52.438Z,56.73
2018-09-30T10:18:53.251Z,57.48
2018-09-30T10:19:54.343Z,57.96
2018-09-30T10:20:54.594Z,57.77
2018-09-30T10:21:55.695Z,58.12
2018-09-30T10:22:56.226Z,58.58
2018-09-30T10:23:57.036Z,59.35
2018-09-30T10:24:57.847Z,59.93
2018-09-30T10:25:58.378Z,61.25
2018-09-30T10:26:59.202Z,60.68
2018-09-30T10:27:59.581Z,61.35
2018-09-30T10:29:00.398Z,60.8
2018-09-30T10:30:03.129Z,61.57
2018-09-30T10:31:03.903Z,59.64
2018-09-30T10:32:03.993Z,59.38
2018-09-30T10:33:04.523Z,58.35
2018-09-30T10:34:05.786Z,58.73
2018-09-30T10:35:06.872Z,58.06
2018-09-30T10:36:07.239Z,57.48
2018-09-30T10:37:08.094Z,57.87
2018-09-30T10:38:09.462Z,59.8
2018-09-30T10:39:12.049Z,58.18
2018-09-30T10:40:10.565Z,57.03
2018-09-30T10:41:11.374Z,57.21
2018-09-30T10:42:12.193Z,57.12
2018-09-30T10:43:13.007Z,58.18
2018-09-30T10:44:14.372Z,58.12
2018-09-30T10:45:15.459Z,56.73
2018-09-30T10:46:15.719Z,60.41
2018-09-30T10:47:17.122Z,60.02
2018-09-30T10:48:18.430Z,59.53
2018-09-30T10:49:19.278Z,59.05
2018-09-30T10:50:19.813Z,58.28
2018-09-30T10:51:20.898Z,58.15
2018-09-30T10:52:21.430Z,58.7
2018-09-30T10:53:22.236Z,59.19
2018-09-30T10:54:22.491Z,59.77
2018-09-30T10:55:24.218Z,61.57
2018-09-30T10:56:24.414Z,62.25
2018-09-30T10:57:24.972Z,62.73
2018-09-30T10:58:26.634Z,61.77
2018-09-30T10:59:27.443Z,61.67
2018-09-30T11:00:27.974Z,61.35
2018-09-30T11:01:28.501Z,62.6
2018-09-30T11:02:29.033Z,63.6
2018-09-30T11:03:30.274Z,63.89
2018-09-30T11:04:31.189Z,63.31
2018-09-30T11:05:31.281Z,63.21
2018-09-30T11:06:32.532Z,62.92
2018-09-30T11:07:33.091Z,62.73
2018-09-30T11:08:33.621Z,61.47
2018-09-30T11:09:35.373Z,60.41
2018-09-30T11:10:35.352Z,61.28
2018-09-30T11:11:35.428Z,61.19
2018-09-30T11:12:35.955Z,60.89
2018-09-30T11:13:36.486Z,59.06
2018-09-30T11:14:37.290Z,60.22
2018-09-30T11:15:38.100Z,57.71
2018-09-30T11:16:38.353Z,58.58
2018-09-30T11:17:39.612Z,60.71
2018-09-30T11:18:40.735Z,62.54
2018-09-30T11:19:41.297Z,62.76
2018-09-30T11:20:41.829Z,62.37
2018-09-30T11:21:42.357Z,63.15
2018-09-30T11:22:43.887Z,62.86
2018-09-30T11:23:44.692Z,65.17
2018-09-30T11:24:45.783Z,66.05
2018-09-30T11:25:46.310Z,65.17
2018-09-30T11:26:48.112Z,63.82
2018-09-30T11:27:48.093Z,64.59
2018-09-30T11:28:48.629Z,62.37
2018-09-30T11:29:49.436Z,63.92
2018-09-30T11:30:49.964Z,62.86
2018-09-30T11:31:51.237Z,64.98
2018-09-30T11:32:51.098Z,63.73
2018-09-30T11:33:51.343Z,63.5
2018-09-30T11:34:51.875Z,64.28
2018-09-30T11:35:53.402Z,64.37
2018-09-30T11:36:54.210Z,64.76
2018-09-30T11:37:55.467Z,63.98
2018-09-30T11:38:56.713Z,63.02
2018-09-30T11:39:57.519Z,66.01
2018-09-30T11:40:58.604Z,64.47
2018-09-30T11:42:00.261Z,63.02
2018-09-30T11:43:00.663Z,65.05
2018-09-30T11:44:01.467Z,64.66
2018-09-30T11:45:02.119Z,65.63
2018-09-30T11:46:02.920Z,63.31
2018-09-30T11:47:04.290Z,63.85
2018-09-30T11:48:05.662Z,64.21
2018-09-30T11:49:05.741Z,64.5
2018-09-30T11:50:06.274Z,64.89
2018-09-30T11:51:07.916Z,65.66
2018-09-30T11:52:08.277Z,65.08
2018-09-30T11:53:09.085Z,64.5
2018-09-30T11:54:10.449Z,64.95
2018-09-30T11:55:11.249Z,64.56
2018-09-30T11:56:12.052Z,64.47
2018-09-30T11:57:12.695Z,65.53
2018-09-30T11:58:14.232Z,64.95
2018-09-30T11:59:14.483Z,64.66
2018-09-30T12:00:15.010Z,64.56
2018-09-30T12:01:16.466Z,64.47
2018-09-30T12:02:17.696Z,64.95
2018-09-30T12:03:17.971Z,64.86
2018-09-30T12:04:18.495Z,65.66
2018-09-30T12:05:19.858Z,63.24
2018-09-30T12:06:20.389Z,63.09
2018-09-30T12:07:21.205Z,62.79
2018-09-30T12:08:21.465Z,62.31
2018-09-30T12:09:22.560Z,62.41
2018-09-30T12:10:23.368Z,62.6
2018-09-30T12:11:23.894Z,61.06
2018-09-30T12:12:24.981Z,62.12
2018-09-30T12:13:25.071Z,61.54
2018-09-30T12:14:25.438Z,62.12
2018-09-30T12:15:26.802Z,62.02
2018-09-30T12:16:27.715Z,62.02
2018-09-30T12:17:28.800Z,62.51
2018-09-30T12:18:29.064Z,64.53
2018-09-30T12:19:30.524Z,66.4
2018-09-30T12:20:31.059Z,62.63
2018-09-30T12:21:32.591Z,61.86
2018-09-30T12:22:33.234Z,64.56
2018-09-30T12:23:34.322Z,64.86
2018-09-30T12:24:35.127Z,62.37
2018-09-30T12:25:36.987Z,61.7
2018-09-30T12:26:37.660Z,61.31
2018-09-30T12:27:38.192Z,61.28
2018-09-30T12:28:39.460Z,60.61
2018-09-30T12:29:40.579Z,61.19
2018-09-30T12:30:42.222Z,60.51
2018-09-30T12:31:43.030Z,60.8
2018-09-30T12:32:44.393Z,63.92
2018-09-30T12:33:44.764Z,63.53
2018-09-30T12:34:44.849Z,63.15
2018-09-30T12:35:45.380Z,62.47
2018-09-30T12:36:46.195Z,59.22
2018-09-30T12:37:47.554Z,58.9
2018-09-30T12:38:49.145Z,59.6
2018-09-30T12:39:49.955Z,60.18
2018-09-30T12:40:50.048Z,59.86
2018-09-30T12:41:51.137Z,59.58
2018-09-30T12:42:51.802Z,59.96
2018-09-30T12:43:52.327Z,59
2018-09-30T12:44:53.418Z,60.57
2018-09-30T12:45:54.783Z,61.25
2018-09-30T12:46:55.316Z,59.31
2018-09-30T12:47:56.565Z,58.35
2018-09-30T12:48:58.383Z,58.45
2018-09-30T12:49:58.913Z,59.73
2018-09-30T12:51:00.279Z,60.21
2018-09-30T12:52:00.368Z,59.18
2018-09-30T12:53:01.454Z,59.18
2018-09-30T12:54:01.984Z,57.63
2018-09-30T12:55:03.238Z,57.24
2018-09-30T12:56:04.050Z,58.02
2018-09-30T12:57:04.857Z,58.21
2018-09-30T12:58:05.090Z,57.99
2018-09-30T12:59:05.704Z,57.21
2018-09-30T13:00:06.790Z,58.09
2018-09-30T13:01:07.598Z,58.47
2018-09-30T13:02:09.133Z,58.83
2018-09-30T13:03:09.661Z,59.22